sensor_id;sensor_type;location;lat;lon;timestamp;pressure;altitude;pressure_sealevel;temperature;humidity
78149;BME280;67396;42.664;23.382;2023-01-30T00:01:21;95192.50;;;-1.14;70.62
78149;BME280;67396;42.664;23.382;2023-01-30T00:03:47;95191.88;;;-1.10;70.16
78149;BME280;67396;42.664;23.382;2023-01-30T00:06:13;95182.94;;;-1.20;70.34
78149;BME280;67396;42.664;23.382;2023-01-30T00:08:38;95182.28;;;-1.25;71.35
78149;BME280;67396;42.664;23.382;2023-01-30T00:11:06;95187.47;;;-1.29;71.46
78149;BME280;67396;42.664;23.382;2023-01-30T00:13:31;95181.66;;;-1.22;71.21
78149;BME280;67396;42.664;23.382;2023-01-30T00:15:57;95179.75;;;-1.22;70.79
78149;BME280;67396;42.664;23.382;2023-01-30T00:18:23;95181.47;;;-1.26;71.35
78149;BME280;67396;42.664;23.382;2023-01-30T00:20:54;95182.81;;;-1.37;72.16
78149;BME280;67396;42.664;23.382;2023-01-30T00:23:20;95177.41;;;-1.37;71.59
78149;BME280;67396;42.664;23.382;2023-01-30T00:25:45;95185.13;;;-1.44;71.93
78149;BME280;67396;42.664;23.382;2023-01-30T00:28:10;95184.03;;;-1.43;71.76
78149;BME280;67396;42.664;23.382;2023-01-30T00:30:36;95189.78;;;-1.36;71.87
78149;BME280;67396;42.664;23.382;2023-01-30T00:33:01;95183.22;;;-1.43;72.70
78149;BME280;67396;42.664;23.382;2023-01-30T00:35:26;95190.94;;;-1.50;72.85
78149;BME280;67396;42.664;23.382;2023-01-30T00:37:58;95189.03;;;-1.50;72.27
78149;BME280;67396;42.664;23.382;2023-01-30T00:40:25;95171.22;;;-1.60;72.57
78149;BME280;67396;42.664;23.382;2023-01-30T00:42:50;95175.00;;;-1.61;73.09
78149;BME280;67396;42.664;23.382;2023-01-30T00:45:35;95169.91;;;-1.62;72.81
78149;BME280;67396;42.664;23.382;2023-01-30T00:48:20;95164.31;;;-1.66;73.56
78149;BME280;67396;42.664;23.382;2023-01-30T00:50:46;95166.00;;;-1.56;72.88
78149;BME280;67396;42.664;23.382;2023-01-30T00:53:14;95169.19;;;-1.54;72.78
78149;BME280;67396;42.664;23.382;2023-01-30T00:55:40;95164.31;;;-1.52;72.59
78149;BME280;67396;42.664;23.382;2023-01-30T00:58:08;95170.22;;;-1.64;73.47
78149;BME280;67396;42.664;23.382;2023-01-30T01:00:34;95163.94;;;-1.59;73.06
78149;BME280;67396;42.664;23.382;2023-01-30T01:03:00;95168.44;;;-1.68;73.37
78149;BME280;67396;42.664;23.382;2023-01-30T01:05:26;95165.84;;;-1.73;73.29
78149;BME280;67396;42.664;23.382;2023-01-30T01:07:51;95165.34;;;-1.75;73.72
78149;BME280;67396;42.664;23.382;2023-01-30T01:10:17;95164.38;;;-1.79;73.61
78149;BME280;67396;42.664;23.382;2023-01-30T01:12:42;95163.78;;;-1.76;73.81
78149;BME280;67396;42.664;23.382;2023-01-30T01:15:09;95162.19;;;-1.77;73.75
78149;BME280;67396;42.664;23.382;2023-01-30T01:17:35;95170.84;;;-1.80;74.29
78149;BME280;67396;42.664;23.382;2023-01-30T01:20:00;95158.28;;;-1.71;73.66
78149;BME280;67396;42.664;23.382;2023-01-30T01:22:25;95160.47;;;-1.73;73.72
78149;BME280;67396;42.664;23.382;2023-01-30T01:24:51;95150.91;;;-1.79;73.61
78149;BME280;67396;42.664;23.382;2023-01-30T01:27:16;95145.72;;;-1.76;73.48
78149;BME280;67396;42.664;23.382;2023-01-30T01:29:43;95147.22;;;-1.70;73.32
78149;BME280;67396;42.664;23.382;2023-01-30T01:32:08;95151.97;;;-1.67;73.15
78149;BME280;67396;42.664;23.382;2023-01-30T01:34:42;95152.16;;;-1.63;73.46
78149;BME280;67396;42.664;23.382;2023-01-30T01:37:10;95143.34;;;-1.77;73.22
78149;BME280;67396;42.664;23.382;2023-01-30T01:39:36;95153.59;;;-1.79;73.70
78149;BME280;67396;42.664;23.382;2023-01-30T01:42:21;95145.41;;;-1.74;73.28
78149;BME280;67396;42.664;23.382;2023-01-30T01:47:56;95152.28;;;-1.68;73.29
78149;BME280;67396;42.664;23.382;2023-01-30T01:50:39;95154.19;;;-1.69;73.16
78149;BME280;67396;42.664;23.382;2023-01-30T01:53:07;95151.41;;;-1.77;73.34
78149;BME280;67396;42.664;23.382;2023-01-30T01:55:35;95151.41;;;-1.77;73.41
78149;BME280;67396;42.664;23.382;2023-01-30T01:58:10;95150.91;;;-1.79;73.26
78149;BME280;67396;42.664;23.382;2023-01-30T02:00:37;95148.72;;;-1.77;73.38
78149;BME280;67396;42.664;23.382;2023-01-30T02:03:10;95152.38;;;-1.73;72.97
78149;BME280;67396;42.664;23.382;2023-01-30T02:05:41;95158.78;;;-1.69;72.99
78149;BME280;67396;42.664;23.382;2023-01-30T02:08:11;95154.09;;;-1.77;72.95
78149;BME280;67396;42.664;23.382;2023-01-30T02:11:05;95152.00;;;-1.80;72.91
78149;BME280;67396;42.664;23.382;2023-01-30T02:13:33;95147.22;;;-1.83;73.38
78149;BME280;67396;42.664;23.382;2023-01-30T02:16:01;95151.41;;;-1.77;72.89
78149;BME280;67396;42.664;23.382;2023-01-30T02:18:28;95149.41;;;-1.72;72.65
78149;BME280;67396;42.664;23.382;2023-01-30T02:32:37;95131.06;;;-1.70;72.58
78149;BME280;67396;42.664;23.382;2023-01-30T02:35:33;95141.41;;;-1.63;71.46
78149;BME280;67396;42.664;23.382;2023-01-30T02:41:09;95145.53;;;-1.79;72.73
78149;BME280;67396;42.664;23.382;2023-01-30T02:49:09;95128.31;;;-1.78;72.33
78149;BME280;67396;42.664;23.382;2023-01-30T02:51:38;95130.19;;;-1.79;72.94
78149;BME280;67396;42.664;23.382;2023-01-30T02:54:10;95130.06;;;-1.74;72.46
78149;BME280;67396;42.664;23.382;2023-01-30T02:56:50;95121.31;;;-1.79;73.14
78149;BME280;67396;42.664;23.382;2023-01-30T02:59:24;95126.09;;;-1.76;72.37
78149;BME280;67396;42.664;23.382;2023-01-30T03:07:15;95136.44;;;-1.70;72.30
78149;BME280;67396;42.664;23.382;2023-01-30T03:12:57;95130.28;;;-1.70;72.02
78149;BME280;67396;42.664;23.382;2023-01-30T03:15:33;95121.59;;;-1.67;71.70
78149;BME280;67396;42.664;23.382;2023-01-30T03:18:01;95126.66;;;-1.66;71.47
78149;BME280;67396;42.664;23.382;2023-01-30T03:20:27;95118.03;;;-1.76;72.05
78149;BME280;67396;42.664;23.382;2023-01-30T03:22:53;95114.56;;;-1.77;72.56
78149;BME280;67396;42.664;23.382;2023-01-30T03:25:21;95110.44;;;-1.74;73.04
78149;BME280;67396;42.664;23.382;2023-01-30T03:27:49;95101.56;;;-1.75;72.50
78149;BME280;67396;42.664;23.382;2023-01-30T03:30:16;95101.78;;;-1.71;72.36
78149;BME280;67396;42.664;23.382;2023-01-30T03:32:41;95103.38;;;-1.70;73.39
78149;BME280;67396;42.664;23.382;2023-01-30T03:35:07;95091.38;;;-1.64;72.58
78149;BME280;67396;42.664;23.382;2023-01-30T03:37:33;95094.56;;;-1.62;72.08
78149;BME280;67396;42.664;23.382;2023-01-30T03:39:59;95095.16;;;-1.65;71.95
78149;BME280;67396;42.664;23.382;2023-01-30T03:42:27;95086.78;;;-1.64;72.17
78149;BME280;67396;42.664;23.382;2023-01-30T03:44:53;95091.28;;;-1.59;71.19
78149;BME280;67396;42.664;23.382;2023-01-30T03:47:18;95098.78;;;-1.70;71.33
78149;BME280;67396;42.664;23.382;2023-01-30T03:49:44;95106.34;;;-1.72;71.52
78149;BME280;67396;42.664;23.382;2023-01-30T03:52:09;95100.78;;;-1.75;72.20
78149;BME280;67396;42.664;23.382;2023-01-30T03:54:35;95097.97;;;-1.70;71.66
78149;BME280;67396;42.664;23.382;2023-01-30T03:57:00;95092.81;;;-1.80;72.23
78149;BME280;67396;42.664;23.382;2023-01-30T03:59:25;95096.19;;;-1.75;72.51
78149;BME280;67396;42.664;23.382;2023-01-30T04:01:51;95088.81;;;-1.69;71.93
78149;BME280;67396;42.664;23.382;2023-01-30T04:04:16;95089.63;;;-1.82;72.24
78149;BME280;67396;42.664;23.382;2023-01-30T04:06:42;95086.06;;;-1.78;72.02
78149;BME280;67396;42.664;23.382;2023-01-30T04:09:07;95077.28;;;-1.83;72.57
78149;BME280;67396;42.664;23.382;2023-01-30T04:11:32;95079.50;;;-1.85;72.89
78149;BME280;67396;42.664;23.382;2023-01-30T04:13:58;95088.16;;;-1.88;72.72
78149;BME280;67396;42.664;23.382;2023-01-30T04:16:25;95092.94;;;-1.85;72.37
78149;BME280;67396;42.664;23.382;2023-01-30T04:18:51;95097.78;;;-1.74;72.61
78149;BME280;67396;42.664;23.382;2023-01-30T04:21:17;95078.94;;;-1.74;71.90
78149;BME280;67396;42.664;23.382;2023-01-30T04:23:42;95089.59;;;-1.69;71.94
78149;BME280;67396;42.664;23.382;2023-01-30T04:26:08;95088.75;;;-1.78;71.65
78149;BME280;67396;42.664;23.382;2023-01-30T04:28:34;95088.31;;;-1.71;72.60
78149;BME280;67396;42.664;23.382;2023-01-30T04:31:00;95088.66;;;-1.86;72.46
78149;BME280;67396;42.664;23.382;2023-01-30T04:33:26;95092.25;;;-1.91;72.87
78149;BME280;67396;42.664;23.382;2023-01-30T04:35:55;95087.78;;;-1.96;73.02
78149;BME280;67396;42.664;23.382;2023-01-30T04:38:22;95075.00;;;-1.90;72.97
78149;BME280;67396;42.664;23.382;2023-01-30T04:40:48;95091.06;;;-1.99;73.31
78149;BME280;67396;42.664;23.382;2023-01-30T04:43:18;95088.59;;;-1.95;73.31
78149;BME280;67396;42.664;23.382;2023-01-30T04:45:44;95085.97;;;-1.86;73.70
78149;BME280;67396;42.664;23.382;2023-01-30T04:48:10;95082.00;;;-1.89;73.72
78149;BME280;67396;42.664;23.382;2023-01-30T04:50:36;95074.72;;;-1.88;73.17
78149;BME280;67396;42.664;23.382;2023-01-30T04:53:02;95081.31;;;-1.95;73.63
78149;BME280;67396;42.664;23.382;2023-01-30T04:55:28;95071.66;;;-1.96;74.09
78149;BME280;67396;42.664;23.382;2023-01-30T04:57:53;95068.66;;;-1.94;73.76
78149;BME280;67396;42.664;23.382;2023-01-30T05:00:19;95066.78;;;-1.94;73.57
78149;BME280;67396;42.664;23.382;2023-01-30T05:02:44;95066.44;;;-1.92;74.15
78149;BME280;67396;42.664;23.382;2023-01-30T05:05:10;95066.66;;;-1.88;73.93
78149;BME280;67396;42.664;23.382;2023-01-30T05:07:35;95064.75;;;-1.88;73.76
78149;BME280;67396;42.664;23.382;2023-01-30T05:10:00;95060.78;;;-1.91;73.63
78149;BME280;67396;42.664;23.382;2023-01-30T05:12:27;95054.56;;;-1.77;73.89
78149;BME280;67396;42.664;23.382;2023-01-30T05:14:53;95060.91;;;-1.73;73.22
78149;BME280;67396;42.664;23.382;2023-01-30T05:17:18;95069.72;;;-1.81;74.21
78149;BME280;67396;42.664;23.382;2023-01-30T05:19:44;95065.91;;;-1.80;73.89
78149;BME280;67396;42.664;23.382;2023-01-30T05:22:09;95069.53;;;-1.85;73.96
78149;BME280;67396;42.664;23.382;2023-01-30T05:24:38;95079.06;;;-1.79;74.34
78149;BME280;67396;42.664;23.382;2023-01-30T05:27:03;95079.88;;;-1.78;74.20
78149;BME280;67396;42.664;23.382;2023-01-30T05:29:32;95071.53;;;-1.91;74.31
78149;BME280;67396;42.664;23.382;2023-01-30T05:31:57;95082.41;;;-1.96;74.34
78149;BME280;67396;42.664;23.382;2023-01-30T05:34:22;95077.41;;;-1.88;74.71
78149;BME280;67396;42.664;23.382;2023-01-30T05:36:48;95076.31;;;-1.87;73.99
78149;BME280;67396;42.664;23.382;2023-01-30T05:39:13;95072.53;;;-2.00;74.38
78149;BME280;67396;42.664;23.382;2023-01-30T05:41:39;95076.16;;;-2.05;74.73
78149;BME280;67396;42.664;23.382;2023-01-30T05:44:25;95075.78;;;-2.12;75.12
78149;BME280;67396;42.664;23.382;2023-01-30T05:46:54;95075.78;;;-2.12;75.54
78149;BME280;67396;42.664;23.382;2023-01-30T05:49:19;95078.34;;;-2.07;76.69
78149;BME280;67396;42.664;23.382;2023-01-30T05:51:45;95082.91;;;-1.94;75.77
78149;BME280;67396;42.664;23.382;2023-01-30T05:54:10;95087.78;;;-1.96;76.38
78149;BME280;67396;42.664;23.382;2023-01-30T05:56:35;95087.44;;;-1.80;75.07
78149;BME280;67396;42.664;23.382;2023-01-30T05:59:01;95082.66;;;-1.83;75.56
78149;BME280;67396;42.664;23.382;2023-01-30T06:01:28;95094.91;;;-1.77;74.89
78149;BME280;67396;42.664;23.382;2023-01-30T06:03:54;95087.06;;;-1.87;75.55
78149;BME280;67396;42.664;23.382;2023-01-30T06:06:20;95086.69;;;-1.95;75.99
78149;BME280;67396;42.664;23.382;2023-01-30T06:08:45;95097.53;;;-1.86;75.84
78149;BME280;67396;42.664;23.382;2023-01-30T06:11:13;95086.22;;;-1.74;75.52
78149;BME280;67396;42.664;23.382;2023-01-30T06:13:39;95085.31;;;-1.70;75.84
78149;BME280;67396;42.664;23.382;2023-01-30T06:16:08;95089.41;;;-1.72;76.38
78149;BME280;67396;42.664;23.382;2023-01-30T06:18:34;95081.47;;;-1.77;76.19
78149;BME280;67396;42.664;23.382;2023-01-30T06:21:00;95078.06;;;-1.69;75.30
78149;BME280;67396;42.664;23.382;2023-01-30T06:23:26;95082.06;;;-1.80;75.93
78149;BME280;67396;42.664;23.382;2023-01-30T06:25:52;95081.06;;;-1.84;75.35
78149;BME280;67396;42.664;23.382;2023-01-30T06:28:18;95072.03;;;-1.88;75.52
78149;BME280;67396;42.664;23.382;2023-01-30T06:30:44;95073.72;;;-1.93;76.12
78149;BME280;67396;42.664;23.382;2023-01-30T06:33:12;95072.53;;;-1.86;75.27
78149;BME280;67396;42.664;23.382;2023-01-30T06:35:39;95077.13;;;-2.01;75.71
78149;BME280;67396;42.664;23.382;2023-01-30T06:38:05;95080.31;;;-1.99;75.75
78149;BME280;67396;42.664;23.382;2023-01-30T06:40:31;95079.44;;;-2.08;76.78
78149;BME280;67396;42.664;23.382;2023-01-30T06:42:56;95077.34;;;-1.97;76.45
78149;BME280;67396;42.664;23.382;2023-01-30T06:45:22;95084.00;;;-1.95;76.36
78149;BME280;67396;42.664;23.382;2023-01-30T06:47:49;95088.00;;;-2.06;76.92
78149;BME280;67396;42.664;23.382;2023-01-30T06:50:16;95088.97;;;-2.02;76.87
78149;BME280;67396;42.664;23.382;2023-01-30T06:52:43;95085.19;;;-2.01;77.31
78149;BME280;67396;42.664;23.382;2023-01-30T06:55:11;95096.84;;;-1.92;77.22
78149;BME280;67396;42.664;23.382;2023-01-30T06:57:37;95091.22;;;-1.81;76.80
78149;BME280;67396;42.664;23.382;2023-01-30T07:00:08;95091.34;;;-1.86;77.15
78149;BME280;67396;42.664;23.382;2023-01-30T07:02:34;95092.66;;;-1.98;76.88
78149;BME280;67396;42.664;23.382;2023-01-30T07:05:00;95100.25;;;-2.00;77.14
78149;BME280;67396;42.664;23.382;2023-01-30T07:07:27;95096.50;;;-2.12;75.49
78149;BME280;67396;42.664;23.382;2023-01-30T07:09:52;95093.31;;;-2.42;78.86
78149;BME280;67396;42.664;23.382;2023-01-30T07:12:17;95101.09;;;-2.40;80.94
78149;BME280;67396;42.664;23.382;2023-01-30T07:14:44;95097.28;;;-2.25;79.32
78149;BME280;67396;42.664;23.382;2023-01-30T07:17:09;95096.78;;;-2.28;77.58
78149;BME280;67396;42.664;23.382;2023-01-30T07:19:35;95100.28;;;-2.27;76.34
78149;BME280;67396;42.664;23.382;2023-01-30T07:22:00;95101.09;;;-2.40;76.84
78149;BME280;67396;42.664;23.382;2023-01-30T07:24:25;95097.59;;;-2.41;76.35
78149;BME280;67396;42.664;23.382;2023-01-30T07:26:51;95106.22;;;-1.67;88.92
78149;BME280;67396;42.664;23.382;2023-01-30T07:29:16;95103.34;;;-0.81;81.72
78149;BME280;67396;42.664;23.382;2023-01-30T07:31:42;95103.56;;;-1.44;74.64
78149;BME280;67396;42.664;23.382;2023-01-30T07:34:11;95104.22;;;-1.97;77.96
78149;BME280;67396;42.664;23.382;2023-01-30T07:36:37;95109.94;;;-2.12;78.02
78149;BME280;67396;42.664;23.382;2023-01-30T07:39:03;95113.00;;;-2.19;78.87
78149;BME280;67396;42.664;23.382;2023-01-30T07:41:29;95123.88;;;-2.24;79.03
78149;BME280;67396;42.664;23.382;2023-01-30T07:43:55;95112.31;;;-2.24;79.71
78149;BME280;67396;42.664;23.382;2023-01-30T07:46:20;95115.69;;;-2.19;79.01
78149;BME280;67396;42.664;23.382;2023-01-30T07:48:46;95113.63;;;-2.22;78.52
78149;BME280;67396;42.664;23.382;2023-01-30T07:51:11;95109.44;;;-2.28;78.85
78149;BME280;67396;42.664;23.382;2023-01-30T07:53:37;95098.28;;;-2.35;77.48
78149;BME280;67396;42.664;23.382;2023-01-30T07:56:09;95110.06;;;-2.31;77.56
78149;BME280;67396;42.664;23.382;2023-01-30T07:59:01;95096.50;;;-2.26;77.36
78149;BME280;67396;42.664;23.382;2023-01-30T08:01:28;95095.91;;;-2.23;77.40
78149;BME280;67396;42.664;23.382;2023-01-30T08:04:11;95086.31;;;-2.15;78.11
78149;BME280;67396;42.664;23.382;2023-01-30T08:06:40;95077.16;;;-2.14;77.90
78149;BME280;67396;42.664;23.382;2023-01-30T08:09:05;95077.97;;;-2.14;77.22
78149;BME280;67396;42.664;23.382;2023-01-30T08:11:34;95084.63;;;-2.11;77.59
78149;BME280;67396;42.664;23.382;2023-01-30T08:16:38;95072.91;;;-1.93;76.88
78149;BME280;67396;42.664;23.382;2023-01-30T08:19:04;95080.53;;;-1.95;76.42
78149;BME280;67396;42.664;23.382;2023-01-30T08:21:33;95078.63;;;-1.95;76.64
78149;BME280;67396;42.664;23.382;2023-01-30T08:24:07;95075.94;;;-1.95;76.72
78149;BME280;67396;42.664;23.382;2023-01-30T08:26:32;95074.66;;;-2.11;75.68
78149;BME280;67396;42.664;23.382;2023-01-30T08:29:07;95069.25;;;-2.47;76.01
78149;BME280;67396;42.664;23.382;2023-01-30T08:31:33;95075.81;;;-2.67;76.25
78149;BME280;67396;42.664;23.382;2023-01-30T08:33:58;95076.53;;;-2.75;77.31
78149;BME280;67396;42.664;23.382;2023-01-30T08:36:23;95073.13;;;-2.67;79.71
78149;BME280;67396;42.664;23.382;2023-01-30T08:38:49;95065.34;;;-2.54;80.42
78149;BME280;67396;42.664;23.382;2023-01-30T08:41:42;95060.06;;;-2.46;79.53
78149;BME280;67396;42.664;23.382;2023-01-30T08:44:08;95056.19;;;-2.53;79.23
78149;BME280;67396;42.664;23.382;2023-01-30T08:46:34;95054.50;;;-2.49;79.04
78149;BME280;67396;42.664;23.382;2023-01-30T08:48:59;95052.94;;;-2.50;78.64
78149;BME280;67396;42.664;23.382;2023-01-30T08:51:25;95058.31;;;-2.50;78.29
78149;BME280;67396;42.664;23.382;2023-01-30T08:53:50;95057.72;;;-2.47;77.90
78149;BME280;67396;42.664;23.382;2023-01-30T08:56:16;95057.22;;;-2.49;77.93
78149;BME280;67396;42.664;23.382;2023-01-30T08:58:42;95051.31;;;-2.51;78.02
78149;BME280;67396;42.664;23.382;2023-01-30T09:01:09;95052.34;;;-2.47;78.19
78149;BME280;67396;42.664;23.382;2023-01-30T09:03:35;95042.75;;;-2.53;77.52
78149;BME280;67396;42.664;23.382;2023-01-30T09:06:00;95042.19;;;-2.50;77.63
78149;BME280;67396;42.664;23.382;2023-01-30T09:08:41;95031.09;;;-2.21;76.48
78149;BME280;67396;42.664;23.382;2023-01-30T09:11:06;95034.09;;;-2.01;74.82
78149;BME280;67396;42.664;23.382;2023-01-30T09:13:33;95026.91;;;-1.92;73.70
78149;BME280;67396;42.664;23.382;2023-01-30T09:15:58;95036.84;;;-1.78;73.42
78149;BME280;67396;42.664;23.382;2023-01-30T09:18:24;95026.94;;;-1.69;72.53
78149;BME280;67396;42.664;23.382;2023-01-30T09:20:50;95030.72;;;-1.70;72.49
78149;BME280;67396;42.664;23.382;2023-01-30T09:23:16;95027.44;;;-1.67;71.84
78149;BME280;67396;42.664;23.382;2023-01-30T09:25:45;95023.06;;;-1.55;71.99
78149;BME280;67396;42.664;23.382;2023-01-30T09:28:11;95028.25;;;-1.58;71.40
78149;BME280;67396;42.664;23.382;2023-01-30T09:30:36;95029.38;;;-1.59;72.50
78149;BME280;67396;42.664;23.382;2023-01-30T09:33:02;95027.84;;;-1.52;72.09
78149;BME280;67396;42.664;23.382;2023-01-30T09:35:27;95035.13;;;-1.52;71.50
78149;BME280;67396;42.664;23.382;2023-01-30T09:37:53;95025.56;;;-1.58;71.60
78149;BME280;67396;42.664;23.382;2023-01-30T09:40:24;95019.06;;;-1.57;72.60
78149;BME280;67396;42.664;23.382;2023-01-30T09:51:00;95008.00;;;-1.56;72.51
78149;BME280;67396;42.664;23.382;2023-01-30T09:54:24;95012.50;;;-1.51;71.63
78149;BME280;67396;42.664;23.382;2023-01-30T09:56:30;95004.66;;;-1.61;71.28
78149;BME280;67396;42.664;23.382;2023-01-30T09:59:02;94992.31;;;-1.62;71.30
78149;BME280;67396;42.664;23.382;2023-01-30T10:01:35;94994.00;;;-1.66;71.85
78149;BME280;67396;42.664;23.382;2023-01-30T10:04:12;94987.41;;;-1.60;71.25
78149;BME280;67396;42.664;23.382;2023-01-30T10:17:56;94964.09;;;-1.65;72.13
78149;BME280;67396;42.664;23.382;2023-01-30T10:20:39;94963.31;;;-1.65;72.54
78149;BME280;67396;42.664;23.382;2023-01-30T10:26:09;94955.47;;;-1.53;71.90
78149;BME280;67396;42.664;23.382;2023-01-30T10:31:18;94950.28;;;-1.72;70.98
78149;BME280;67396;42.664;23.382;2023-01-30T10:36:31;94939.94;;;-1.56;70.94
78149;BME280;67396;42.664;23.382;2023-01-30T10:39:01;94929.44;;;-1.66;70.42
78149;BME280;67396;42.664;23.382;2023-01-30T10:42:09;94918.91;;;-1.54;71.52
78149;BME280;67396;42.664;23.382;2023-01-30T10:44:37;94918.09;;;-1.55;69.99
78149;BME280;67396;42.664;23.382;2023-01-30T10:50:10;94911.22;;;-1.69;70.13
78149;BME280;67396;42.664;23.382;2023-01-30T10:53:15;94904.25;;;-1.70;69.93
78149;BME280;67396;42.664;23.382;2023-01-30T10:55:54;94898.28;;;-1.67;70.14
78149;BME280;67396;42.664;23.382;2023-01-30T11:01:22;94880.25;;;-1.58;69.85
78149;BME280;67396;42.664;23.382;2023-01-30T11:04:02;94869.34;;;-1.53;69.65
78149;BME280;67396;42.664;23.382;2023-01-30T11:06:30;94861.00;;;-1.43;69.17
78149;BME280;67396;42.664;23.382;2023-01-30T11:08:56;94857.63;;;-1.48;68.57
78149;BME280;67396;42.664;23.382;2023-01-30T11:16:55;94853.69;;;-1.51;68.67
78149;BME280;67396;42.664;23.382;2023-01-30T11:19:33;94840.41;;;-1.47;68.41
78149;BME280;67396;42.664;23.382;2023-01-30T11:22:04;94841.06;;;-1.42;68.28
78149;BME280;67396;42.664;23.382;2023-01-30T11:24:48;94834.75;;;-1.29;68.47
78149;BME280;67396;42.664;23.382;2023-01-30T11:27:35;94827.50;;;-1.20;69.10
78149;BME280;67396;42.664;23.382;2023-01-30T11:32:38;94813.25;;;-1.11;66.63
78149;BME280;67396;42.664;23.382;2023-01-30T11:37:34;94807.22;;;-1.17;67.55
78149;BME280;67396;42.664;23.382;2023-01-30T11:42:43;94802.78;;;-1.22;67.41
78149;BME280;67396;42.664;23.382;2023-01-30T11:45:10;94796.94;;;-1.24;67.54
78149;BME280;67396;42.664;23.382;2023-01-30T11:47:36;94788.84;;;-1.24;67.42
78149;BME280;67396;42.664;23.382;2023-01-30T11:50:02;94776.81;;;-1.18;67.19
78149;BME280;67396;42.664;23.382;2023-01-30T11:52:34;94776.03;;;-1.01;67.21
78149;BME280;67396;42.664;23.382;2023-01-30T11:55:09;94773.34;;;-0.92;66.69
78149;BME280;67396;42.664;23.382;2023-01-30T11:57:49;94770.03;;;-0.98;66.28
78149;BME280;67396;42.664;23.382;2023-01-30T12:00:22;94761.78;;;-0.93;67.12
78149;BME280;67396;42.664;23.382;2023-01-30T12:02:51;94755.28;;;-0.83;66.13
78149;BME280;67396;42.664;23.382;2023-01-30T12:07:52;94746.41;;;-0.92;66.25
78149;BME280;67396;42.664;23.382;2023-01-30T12:10:28;94735.94;;;-0.85;66.19
78149;BME280;67396;42.664;23.382;2023-01-30T12:12:59;94734.66;;;-0.79;65.96
78149;BME280;67396;42.664;23.382;2023-01-30T12:15:30;94729.25;;;-0.79;65.64
78149;BME280;67396;42.664;23.382;2023-01-30T12:21:16;94731.03;;;-0.74;64.80
78149;BME280;67396;42.664;23.382;2023-01-30T12:24:04;94711.66;;;-0.59;64.86
78149;BME280;67396;42.664;23.382;2023-01-30T12:26:45;94713.09;;;-0.88;65.54
78149;BME280;67396;42.664;23.382;2023-01-30T12:29:32;94709.16;;;-0.82;64.95
78149;BME280;67396;42.664;23.382;2023-01-30T12:32:14;94709.47;;;-0.92;65.83
78149;BME280;67396;42.664;23.382;2023-01-30T12:34:41;94686.97;;;-0.87;65.32
78149;BME280;67396;42.664;23.382;2023-01-30T12:37:41;94693.94;;;-0.95;65.36
78149;BME280;67396;42.664;23.382;2023-01-30T12:46:00;94692.22;;;-0.99;65.15
78149;BME280;67396;42.664;23.382;2023-01-30T12:54:20;94672.56;;;-1.00;64.78
78149;BME280;67396;42.664;23.382;2023-01-30T12:57:08;94673.50;;;-0.87;64.68
78149;BME280;67396;42.664;23.382;2023-01-30T12:59:52;94665.25;;;-0.82;64.95
78149;BME280;67396;42.664;23.382;2023-01-30T13:02:51;94670.78;;;-0.87;65.03
78149;BME280;67396;42.664;23.382;2023-01-30T13:05:33;94665.09;;;-0.86;65.09
78149;BME280;67396;42.664;23.382;2023-01-30T13:08:19;94657.31;;;-0.87;65.53
78149;BME280;67396;42.664;23.382;2023-01-30T13:11:11;94664.31;;;-0.95;65.08
78149;BME280;67396;42.664;23.382;2023-01-30T13:14:05;94665.59;;;-0.92;65.78
78149;BME280;67396;42.664;23.382;2023-01-30T13:27:15;94647.22;;;-0.90;65.03
78149;BME280;67396;42.664;23.382;2023-01-30T13:29:45;94640.25;;;-0.91;64.60
78149;BME280;67396;42.664;23.382;2023-01-30T13:32:34;94643.38;;;-0.81;64.50
78149;BME280;67396;42.664;23.382;2023-01-30T13:35:06;94637.25;;;-0.98;64.77
78149;BME280;67396;42.664;23.382;2023-01-30T13:37:36;94640.88;;;-0.94;66.58
78149;BME280;67396;42.664;23.382;2023-01-30T13:40:15;94635.78;;;-0.87;66.25
78149;BME280;67396;42.664;23.382;2023-01-30T13:45:21;94637.34;;;-0.86;65.75
78149;BME280;67396;42.664;23.382;2023-01-30T13:55:56;94627.16;;;-0.63;63.69
78149;BME280;67396;42.664;23.382;2023-01-30T13:58:54;94638.59;;;-0.75;63.86
78149;BME280;67396;42.664;23.382;2023-01-30T14:12:27;94621.06;;;-0.90;65.51
78149;BME280;67396;42.664;23.382;2023-01-30T14:17:26;94618.81;;;-0.88;64.81
78149;BME280;67396;42.664;23.382;2023-01-30T14:20:10;94623.78;;;-0.98;64.29
78149;BME280;67396;42.664;23.382;2023-01-30T14:22:54;94622.00;;;-0.94;64.41
78149;BME280;67396;42.664;23.382;2023-01-30T14:33:31;94632.19;;;-1.17;64.71
78149;BME280;67396;42.664;23.382;2023-01-30T14:38:42;94617.16;;;-1.27;66.01
78149;BME280;67396;42.664;23.382;2023-01-30T14:41:24;94618.75;;;-1.26;66.38
78149;BME280;67396;42.664;23.382;2023-01-30T14:43:51;94615.75;;;-1.24;65.05
78149;BME280;67396;42.664;23.382;2023-01-30T14:51:25;94603.53;;;-1.30;66.31
78149;BME280;67396;42.664;23.382;2023-01-30T14:54:17;94598.94;;;-1.30;66.13
78149;BME280;67396;42.664;23.382;2023-01-30T15:10:02;94596.75;;;-1.36;66.05
78149;BME280;67396;42.664;23.382;2023-01-30T15:15:31;94594.69;;;-1.48;66.40
78149;BME280;67396;42.664;23.382;2023-01-30T15:32:25;94598.47;;;-1.58;66.90
78149;BME280;67396;42.664;23.382;2023-01-30T15:34:56;94609.41;;;-1.63;66.18
78149;BME280;67396;42.664;23.382;2023-01-30T15:42:42;94617.00;;;-1.82;67.67
78149;BME280;67396;42.664;23.382;2023-01-30T15:48:34;94609.72;;;-1.81;67.69
78149;BME280;67396;42.664;23.382;2023-01-30T15:51:02;94613.69;;;-1.79;67.38
78149;BME280;67396;42.664;23.382;2023-01-30T15:53:41;94615.75;;;-1.67;67.17
78149;BME280;67396;42.664;23.382;2023-01-30T15:56:09;94608.31;;;-1.70;66.99
78149;BME280;67396;42.664;23.382;2023-01-30T15:58:39;94612.56;;;-1.86;67.79
78149;BME280;67396;42.664;23.382;2023-01-30T16:01:05;94613.06;;;-1.67;67.96
78149;BME280;67396;42.664;23.382;2023-01-30T16:03:32;94611.63;;;-1.73;66.50
78149;BME280;67396;42.664;23.382;2023-01-30T16:06:01;94613.84;;;-1.67;67.21
78149;BME280;67396;42.664;23.382;2023-01-30T16:08:34;94609.72;;;-1.81;67.60
78149;BME280;67396;42.664;23.382;2023-01-30T16:11:01;94615.09;;;-1.73;66.97
78149;BME280;67396;42.664;23.382;2023-01-30T16:13:27;94606.72;;;-1.71;66.42